createdAt,value
2016-03-08T07:40:06.761Z,380
2016-03-08T07:40:19.980Z,385
2016-03-08T07:40:33.620Z,385
2016-03-08T07:40:47.201Z,390
2016-03-08T07:41:00.936Z,390
2016-03-08T07:41:14.592Z,390
2016-03-08T07:41:28.170Z,390
2016-03-08T07:41:41.048Z,390
2016-03-08T07:41:54.579Z,390
2016-03-08T07:42:08.298Z,395
2016-03-08T07:42:21.814Z,395
2016-03-08T07:42:35.579Z,400
2016-03-08T07:42:49.286Z,400
2016-03-08T07:43:03.395Z,400
2016-03-08T07:43:20.161Z,405
2016-03-08T07:43:34.176Z,405
2016-03-08T07:43:47.944Z,405
2016-03-08T07:44:01.631Z,405
2016-03-08T07:44:15.272Z,405
2016-03-08T07:44:29.038Z,405
2016-03-08T07:44:42.821Z,405
2016-03-08T07:44:56.571Z,410
2016-03-08T07:45:10.649Z,415
2016-03-08T07:45:24.790Z,415
2016-03-08T07:45:38.618Z,415
2016-03-08T07:45:55.247Z,415
2016-03-08T07:46:08.919Z,415
2016-03-08T07:46:22.762Z,420
2016-03-08T07:46:36.840Z,420
2016-03-08T07:46:50.780Z,420
2016-03-08T07:47:04.592Z,420
2016-03-08T07:47:18.374Z,420
2016-03-08T07:47:32.077Z,420
2016-03-08T07:47:45.845Z,420
2016-03-08T07:47:59.674Z,420
2016-03-08T07:48:13.361Z,420
2016-03-08T07:48:27.142Z,420
2016-03-08T07:48:41.035Z,425
2016-03-08T07:48:55.097Z,420
2016-03-08T07:49:09.472Z,425
2016-03-08T07:49:23.254Z,420
2016-03-08T07:49:37.316Z,420
2016-03-08T07:49:51.116Z,420
2016-03-08T07:50:04.913Z,420
2016-03-08T07:50:18.554Z,420
2016-03-08T07:50:32.241Z,420
2016-03-08T07:50:45.947Z,420
2016-03-08T07:50:59.775Z,420
2016-03-08T07:51:14.041Z,420
2016-03-08T07:51:27.869Z,420
2016-03-08T07:51:41.699Z,425
2016-03-08T07:51:55.512Z,425
2016-03-08T07:52:09.777Z,425
2016-03-08T07:52:23.621Z,425
2016-03-08T07:52:37.418Z,425
2016-03-08T07:52:51.141Z,425
2016-03-08T07:53:05.531Z,425
2016-03-08T07:53:21.828Z,430
2016-03-08T07:53:35.719Z,430
2016-03-08T07:53:49.486Z,435
2016-03-08T07:54:03.236Z,430
2016-03-08T07:54:17.018Z,430
2016-03-08T07:54:33.940Z,430
2016-03-08T07:54:47.755Z,430
2016-03-08T07:55:01.599Z,430
2016-03-08T07:55:15.505Z,430
2016-03-08T07:55:29.489Z,435
2016-03-08T07:55:43.382Z,435
2016-03-08T07:55:57.148Z,445
2016-03-08T07:56:10.929Z,445
2016-03-08T07:56:24.788Z,445
2016-03-08T07:56:37.757Z,440
2016-03-08T07:56:51.635Z,440
2016-03-08T07:57:05.463Z,450
2016-03-08T07:57:22.276Z,450
2016-03-08T07:57:36.151Z,450
2016-03-08T07:57:49.997Z,445
2016-03-08T07:58:03.685Z,440
2016-03-08T07:58:17.576Z,440
2016-03-08T07:58:31.279Z,445
2016-03-08T07:58:45.046Z,450
2016-03-08T07:58:58.810Z,460
2016-03-08T07:59:12.638Z,460
2016-03-08T07:59:26.779Z,455
2016-03-08T07:59:40.907Z,455
2016-03-08T07:59:54.672Z,450
2016-03-08T08:00:08.501Z,455
2016-03-08T08:00:22.344Z,460
2016-03-08T08:00:36.141Z,460
2016-03-08T08:00:49.941Z,465
2016-03-08T08:01:03.754Z,465
2016-03-08T08:01:18.191Z,465
2016-03-08T08:01:32.144Z,460
2016-03-08T08:01:45.662Z,465
2016-03-08T08:02:02.521Z,470
2016-03-08T08:02:16.381Z,470
2016-03-08T08:02:30.240Z,475
2016-03-08T08:02:44.055Z,480
2016-03-08T08:02:57.821Z,480
2016-03-08T08:03:11.649Z,480
2016-03-08T08:03:25.352Z,480
2016-03-08T08:03:42.465Z,475
2016-03-08T08:03:56.355Z,470
2016-03-08T08:04:10.433Z,480
2016-03-08T08:04:24.074Z,485
2016-03-08T08:04:37.965Z,490
2016-03-08T08:04:52.045Z,495
2016-03-08T08:05:05.842Z,500
2016-03-08T08:05:19.873Z,500
2016-03-08T08:05:33.560Z,500
2016-03-08T08:05:47.329Z,510
2016-03-08T08:06:01.220Z,505
2016-03-08T08:06:15.251Z,505
2016-03-08T08:06:31.985Z,495
2016-03-08T08:06:45.879Z,500
2016-03-08T08:06:59.691Z,510
2016-03-08T08:07:13.520Z,515
2016-03-08T08:07:30.488Z,530
2016-03-08T08:07:44.257Z,540
2016-03-08T08:07:58.054Z,550
2016-03-08T08:08:11.726Z,555
2016-03-08T08:08:24.741Z,555
2016-03-08T08:08:38.585Z,555
2016-03-08T08:08:52.306Z,550
2016-03-08T08:09:06.181Z,550
2016-03-08T08:09:19.868Z,550
2016-03-08T08:09:33.821Z,545
2016-03-08T08:09:47.965Z,540
2016-03-08T08:10:01.731Z,535
2016-03-08T08:10:15.606Z,535
2016-03-08T08:10:29.465Z,530
2016-03-08T08:10:43.171Z,525
2016-03-08T08:10:56.984Z,530
2016-03-08T08:11:13.718Z,545
2016-03-08T08:11:27.593Z,560
2016-03-08T08:11:41.314Z,565
2016-03-08T08:11:55.064Z,575
2016-03-08T08:12:22.720Z,580
2016-03-08T08:12:36.423Z,590
2016-03-08T08:12:50.316Z,595
2016-03-08T08:13:03.831Z,600
2016-03-08T08:13:17.535Z,600
2016-03-08T08:13:31.285Z,600
2016-03-08T08:13:44.992Z,600
2016-03-08T08:13:58.648Z,610
2016-03-08T08:14:12.273Z,610
2016-03-08T08:14:26.085Z,620
2016-03-08T08:14:40.039Z,620
2016-03-08T08:14:53.556Z,625
2016-03-08T08:15:06.541Z,615
2016-03-08T08:15:20.306Z,610
2016-03-08T08:15:34.072Z,615
2016-03-08T08:15:47.887Z,635
2016-03-08T08:16:01.715Z,640
2016-03-08T08:16:15.419Z,625
2016-03-08T08:16:32.137Z,620
2016-03-08T08:16:45.422Z,615
2016-03-08T08:16:59.187Z,620
2016-03-08T08:17:13.015Z,655
2016-03-08T08:17:26.843Z,660
2016-03-08T08:17:40.656Z,655
2016-03-08T08:17:54.486Z,670
2016-03-08T08:18:08.377Z,670
2016-03-08T08:18:21.986Z,660
2016-03-08T08:18:35.783Z,670
2016-03-08T08:18:49.598Z,660
2016-03-08T08:19:03.317Z,650
2016-03-08T08:19:17.067Z,660
2016-03-08T08:19:30.786Z,655
2016-03-08T08:19:47.647Z,665
2016-03-08T08:20:01.429Z,665
2016-03-08T08:20:15.350Z,665
2016-03-08T08:20:29.179Z,660
2016-03-08T08:20:45.979Z,700
2016-03-08T08:20:59.729Z,710
2016-03-08T08:21:13.589Z,715
2016-03-08T08:21:27.214Z,725
2016-03-08T08:21:40.981Z,720
2016-03-08T08:21:54.200Z,730
2016-03-08T08:22:07.966Z,720
2016-03-08T08:22:21.622Z,730
2016-03-08T08:22:34.591Z,740
2016-03-08T08:22:47.593Z,745
2016-03-08T08:23:01.327Z,755
2016-03-08T08:23:15.327Z,760
2016-03-08T08:23:28.905Z,760
2016-03-08T08:23:42.549Z,760
2016-03-08T08:23:56.330Z,765
2016-03-08T08:24:10.127Z,765
2016-03-08T08:24:23.752Z,765
2016-03-08T08:24:37.377Z,775
2016-03-08T08:24:51.083Z,770
2016-03-08T08:25:04.974Z,785
2016-03-08T08:25:19.052Z,790
2016-03-08T08:25:32.818Z,805
2016-03-08T08:25:49.492Z,795
2016-03-08T08:26:03.242Z,800
2016-03-08T08:26:17.071Z,785
2016-03-08T08:26:30.711Z,805
2016-03-08T08:26:44.355Z,805
2016-03-08T08:26:58.011Z,825
2016-03-08T08:27:11.777Z,825
2016-03-08T08:27:25.464Z,820
2016-03-08T08:27:39.667Z,805
2016-03-08T08:27:53.435Z,820
2016-03-08T08:28:07.263Z,825
2016-03-08T08:28:20.888Z,840
2016-03-08T08:28:34.591Z,840
2016-03-08T08:28:48.454Z,865
2016-03-08T08:29:02.047Z,870
2016-03-08T08:29:15.750Z,870
2016-03-08T08:29:29.391Z,880
2016-03-08T08:29:42.988Z,865
2016-03-08T08:29:56.722Z,860
2016-03-08T08:30:10.378Z,870
2016-03-08T08:30:24.019Z,890
2016-03-08T08:30:37.675Z,870
2016-03-08T08:30:51.255Z,935
2016-03-08T08:31:04.834Z,920
2016-03-08T08:31:18.459Z,890
2016-03-08T08:31:32.177Z,965
2016-03-08T08:31:45.883Z,910
2016-03-08T08:31:59.524Z,950
2016-03-08T08:32:13.149Z,925
2016-03-08T08:32:26.290Z,925
2016-03-08T08:32:39.977Z,910
2016-03-08T08:32:53.574Z,900
2016-03-08T08:33:07.324Z,940
2016-03-08T08:33:21.043Z,930
2016-03-08T08:33:33.996Z,965
2016-03-08T08:33:47.873Z,930
2016-03-08T08:34:01.654Z,915
2016-03-08T08:34:15.623Z,940
2016-03-08T08:34:29.310Z,955
2016-03-08T08:34:42.954Z,950
2016-03-08T08:34:56.579Z,980
2016-03-08T08:35:10.220Z,995
2016-03-08T08:35:23.923Z,1020
2016-03-08T08:35:37.720Z,1030
2016-03-08T08:35:51.410Z,970
2016-03-08T08:36:05.035Z,930
2016-03-08T08:36:18.785Z,1005
2016-03-08T08:36:31.613Z,960
2016-03-08T08:36:45.209Z,1040
2016-03-08T08:36:58.865Z,1010
2016-03-08T08:37:11.740Z,1010
2016-03-08T08:37:25.396Z,1020
2016-03-08T08:37:39.162Z,995
2016-03-08T08:37:52.915Z,990
2016-03-08T08:38:06.618Z,990
2016-03-08T08:38:20.368Z,1015
2016-03-08T08:38:34.446Z,1065
2016-03-08T08:39:02.309Z,1055
2016-03-08T08:39:16.074Z,1040
2016-03-08T08:39:29.887Z,1020
2016-03-08T08:39:43.702Z,1025
2016-03-08T08:40:00.359Z,1010
2016-03-08T08:40:14.155Z,1025
2016-03-08T08:40:27.937Z,1060
2016-03-08T08:40:41.752Z,1015
2016-03-08T08:40:56.268Z,940
2016-03-08T08:41:10.033Z,930
2016-03-08T08:41:23.971Z,980
2016-03-08T08:41:37.815Z,935
2016-03-08T08:41:51.567Z,930
2016-03-08T08:42:05.582Z,950
2016-03-08T08:42:19.285Z,1040
2016-03-08T08:42:32.926Z,1120
2016-03-08T08:42:45.945Z,1040
2016-03-08T08:42:59.601Z,1015
2016-03-08T08:43:13.351Z,1040
2016-03-08T08:43:27.101Z,1220
2016-03-08T08:43:41.007Z,1250
2016-03-08T08:43:54.822Z,1200
2016-03-08T08:44:08.587Z,1125
2016-03-08T08:44:22.275Z,1065
2016-03-08T08:44:36.134Z,1020
2016-03-08T08:44:49.950Z,1010
2016-03-08T08:45:03.762Z,1020
2016-03-08T08:45:20.497Z,1010
2016-03-08T08:45:34.528Z,1015
2016-03-08T08:45:48.233Z,1010
2016-03-08T08:46:01.936Z,1010
2016-03-08T08:46:15.764Z,1010
2016-03-08T08:46:29.342Z,1040
2016-03-08T08:46:43.173Z,1045
2016-03-08T08:46:56.939Z,1065
2016-03-08T08:47:10.736Z,1145
2016-03-08T08:47:24.830Z,1235
2016-03-08T08:47:38.783Z,1225
2016-03-08T08:47:52.801Z,1165
2016-03-08T08:48:06.614Z,1090
2016-03-08T08:48:20.755Z,1055
2016-03-08T08:48:34.505Z,1010
2016-03-08T08:48:48.475Z,950
2016-03-08T08:49:02.241Z,980
2016-03-08T08:49:16.069Z,950
2016-03-08T08:49:29.944Z,930
2016-03-08T08:49:43.838Z,1000
2016-03-08T08:49:57.619Z,1185
2016-03-08T08:50:11.697Z,1210
2016-03-08T08:50:25.822Z,1295
2016-03-08T08:50:40.010Z,1245
2016-03-08T08:50:53.794Z,1175
2016-03-08T08:51:11.138Z,1130
2016-03-08T08:51:24.966Z,1140
2016-03-08T08:51:38.669Z,1110
2016-03-08T08:51:52.562Z,1090
2016-03-08T08:52:06.500Z,1070
2016-03-08T08:52:20.453Z,1125
2016-03-08T08:52:34.344Z,1165
2016-03-08T08:52:48.174Z,1190
2016-03-08T08:53:02.064Z,1160
2016-03-08T08:53:15.893Z,1215
2016-03-08T08:53:29.705Z,1125
2016-03-08T08:53:43.411Z,1150
2016-03-08T08:53:57.302Z,1210
2016-03-08T08:54:11.380Z,1160
2016-03-08T08:54:25.130Z,1130
2016-03-08T08:54:38.896Z,1105
2016-03-08T08:54:52.664Z,1095
2016-03-08T08:55:06.445Z,1140
2016-03-08T08:55:20.274Z,1145
2016-03-08T08:55:34.086Z,1190
2016-03-08T08:55:47.980Z,1235
2016-03-08T08:56:04.777Z,1290
2016-03-08T08:56:18.558Z,1355
2016-03-08T08:56:32.495Z,1235
2016-03-08T08:56:46.388Z,1215
2016-03-08T08:57:00.091Z,1225
2016-03-08T08:57:14.107Z,1210
2016-03-08T08:57:27.919Z,1250
2016-03-08T08:57:41.719Z,1220
2016-03-08T08:57:58.547Z,1305
2016-03-08T08:58:12.438Z,1270
2016-03-08T08:58:26.282Z,1295
2016-03-08T08:58:40.157Z,1290
2016-03-08T08:58:53.910Z,1265
2016-03-08T08:59:07.675Z,1295
2016-03-08T08:59:21.456Z,1345
2016-03-08T08:59:35.347Z,1340
2016-03-08T08:59:49.240Z,1365
2016-03-08T09:00:06.037Z,1375
2016-03-08T09:00:19.927Z,1445
2016-03-08T09:00:33.708Z,1470
2016-03-08T09:00:46.774Z,1445
2016-03-08T09:01:00.743Z,1405
2016-03-08T09:01:14.602Z,1350
2016-03-08T09:01:28.446Z,1335
2016-03-08T09:01:42.339Z,1315
2016-03-08T09:01:56.277Z,1305
2016-03-08T09:02:10.168Z,1320
2016-03-08T09:02:24.043Z,1315
2016-03-08T09:02:37.933Z,1290
2016-03-08T09:02:51.826Z,1245
2016-03-08T09:03:08.951Z,1200
2016-03-08T09:03:22.810Z,1165
2016-03-08T09:03:36.826Z,1140
2016-03-08T09:03:50.594Z,1130
2016-03-08T09:04:04.469Z,1145
2016-03-08T09:04:18.313Z,1155
2016-03-08T09:04:32.266Z,1165
2016-03-08T09:04:46.284Z,1165
2016-03-08T09:05:00.034Z,1170
2016-03-08T09:05:14.237Z,1185
2016-03-08T09:05:28.378Z,1170
2016-03-08T09:05:42.272Z,1175
2016-03-08T09:05:55.913Z,1165
2016-03-08T09:06:09.600Z,1155
2016-03-08T09:06:23.194Z,1135
2016-03-08T09:06:37.069Z,1140
2016-03-08T09:06:50.712Z,1140
2016-03-08T09:07:04.415Z,1155
2016-03-08T09:07:18.493Z,1160
2016-03-08T09:07:32.290Z,1170
2016-03-08T09:07:46.074Z,1170
2016-03-08T09:07:59.902Z,1170
2016-03-08T09:08:14.105Z,1190
2016-03-08T09:08:27.184Z,1195
2016-03-08T09:08:40.949Z,1185
2016-03-08T09:08:54.733Z,1200
2016-03-08T09:09:08.483Z,1235
2016-03-08T09:09:22.296Z,1240
2016-03-08T09:09:39.046Z,1235
2016-03-08T09:09:52.876Z,1220
2016-03-08T09:10:06.720Z,1230
2016-03-08T09:10:20.845Z,1235
2016-03-08T09:10:34.985Z,1235
2016-03-08T09:10:48.801Z,1215
2016-03-08T09:11:02.504Z,1180
2016-03-08T09:11:19.238Z,1135
2016-03-08T09:11:32.926Z,1115
2016-03-08T09:11:46.773Z,1090
2016-03-08T09:12:00.523Z,1065
2016-03-08T09:12:14.226Z,1055
2016-03-08T09:12:27.241Z,1055
2016-03-08T09:12:41.023Z,1065
2016-03-08T09:12:54.837Z,1065
2016-03-08T09:13:08.556Z,1080
2016-03-08T09:13:22.993Z,1095
2016-03-08T09:13:36.844Z,1100
2016-03-08T09:13:50.581Z,1100
2016-03-08T09:14:04.409Z,1085
2016-03-08T09:14:18.113Z,1080
2016-03-08T09:14:31.878Z,1080
2016-03-08T09:14:45.709Z,1085
2016-03-08T09:14:59.522Z,1105
2016-03-08T09:15:13.287Z,1130
2016-03-08T09:15:26.991Z,1150
2016-03-08T09:15:40.756Z,1160
2016-03-08T09:15:57.447Z,1150
2016-03-08T09:16:11.275Z,1120
2016-03-08T09:16:24.915Z,1095
2016-03-08T09:16:38.681Z,1060
2016-03-08T09:16:52.558Z,1045
2016-03-08T09:17:06.402Z,1030
2016-03-08T09:17:20.105Z,1010
2016-03-08T09:17:33.746Z,1000
2016-03-08T09:17:47.560Z,990
2016-03-08T09:18:01.373Z,980
2016-03-08T09:18:15.263Z,975
2016-03-08T09:18:28.904Z,945
2016-03-08T09:18:42.548Z,920
2016-03-08T09:18:56.189Z,905
2016-03-08T09:19:09.908Z,895
2016-03-08T09:19:23.595Z,895
2016-03-08T09:19:37.423Z,895
2016-03-08T09:19:51.191Z,890
2016-03-08T09:20:04.894Z,895
2016-03-08T09:20:18.660Z,895
2016-03-08T09:20:32.410Z,895
2016-03-08T09:20:46.007Z,890
2016-03-08T09:20:59.835Z,890
2016-03-08T09:21:13.522Z,885
2016-03-08T09:21:27.225Z,885
2016-03-08T09:21:40.991Z,885
2016-03-08T09:21:54.760Z,895
2016-03-08T09:22:08.588Z,890
2016-03-08T09:22:22.275Z,890
2016-03-08T09:22:36.056Z,890
2016-03-08T09:22:49.199Z,890
2016-03-08T09:23:02.965Z,875
2016-03-08T09:23:15.980Z,875
2016-03-08T09:23:32.715Z,860
2016-03-08T09:23:46.811Z,855
2016-03-08T09:24:00.515Z,855
2016-03-08T09:24:14.343Z,850
2016-03-08T09:24:27.983Z,845
2016-03-08T09:24:41.780Z,840
2016-03-08T09:24:55.564Z,835
2016-03-08T09:25:09.439Z,830
2016-03-08T09:25:23.033Z,830
2016-03-08T09:25:36.908Z,825
2016-03-08T09:25:50.755Z,815
2016-03-08T09:26:04.505Z,810
2016-03-08T09:26:18.380Z,800
2016-03-08T09:26:32.130Z,795
2016-03-08T09:26:45.366Z,780
2016-03-08T09:26:59.288Z,780
2016-03-08T09:27:13.007Z,770
2016-03-08T09:27:26.726Z,760
2016-03-08T09:27:40.476Z,750
2016-03-08T09:27:53.713Z,740
2016-03-08T09:28:08.260Z,730
2016-03-08T09:28:22.260Z,730
2016-03-08T09:28:35.776Z,720
2016-03-08T09:28:49.607Z,715
2016-03-08T09:29:03.372Z,715
2016-03-08T09:29:17.138Z,715
2016-03-08T09:29:31.216Z,710
2016-03-08T09:29:45.046Z,715
2016-03-08T09:29:58.546Z,715
2016-03-08T09:30:12.327Z,720
2016-03-08T09:30:25.234Z,720
2016-03-08T09:30:38.984Z,720
2016-03-08T09:30:52.877Z,725
2016-03-08T09:31:06.596Z,730
2016-03-08T09:31:19.612Z,735
2016-03-08T09:31:33.674Z,745
2016-03-08T09:31:47.614Z,745
2016-03-08T09:32:01.254Z,750
2016-03-08T09:32:14.832Z,750
2016-03-08T09:32:28.473Z,755
2016-03-08T09:32:41.379Z,760
2016-03-08T09:32:55.101Z,760
2016-03-08T09:33:08.789Z,765
2016-03-08T09:33:22.476Z,770
2016-03-08T09:33:36.179Z,770
2016-03-08T09:33:49.947Z,775
2016-03-08T09:34:03.712Z,785
2016-03-08T09:34:17.416Z,790
2016-03-08T09:34:31.041Z,790
2016-03-08T09:34:43.951Z,790
2016-03-08T09:34:57.576Z,790
2016-03-08T09:35:11.420Z,790
2016-03-08T09:35:25.310Z,790
2016-03-08T09:35:38.998Z,785
2016-03-08T09:35:52.640Z,780
2016-03-08T09:36:05.593Z,785
2016-03-08T09:36:19.234Z,780
2016-03-08T09:36:32.250Z,780
2016-03-08T09:36:45.095Z,780
2016-03-08T09:36:58.814Z,785
2016-03-08T09:37:12.455Z,790
2016-03-08T09:37:26.220Z,800
2016-03-08T09:37:39.783Z,810
2016-03-08T09:37:53.364Z,815
2016-03-08T09:38:06.942Z,815
2016-03-08T09:38:20.567Z,820
2016-03-08T09:38:33.536Z,825
2016-03-08T09:38:47.305Z,830
2016-03-08T09:39:01.008Z,840
2016-03-08T09:39:14.773Z,835
2016-03-08T09:39:27.742Z,835
2016-03-08T09:39:41.664Z,840
2016-03-08T09:39:55.433Z,840
2016-03-08T09:40:09.276Z,840
2016-03-08T09:40:22.183Z,835
2016-03-08T09:40:35.714Z,830
2016-03-08T09:40:49.326Z,820
2016-03-08T09:41:17.092Z,805
2016-03-08T09:41:30.014Z,795
2016-03-08T09:41:43.766Z,785
2016-03-08T09:41:57.641Z,775
2016-03-08T09:42:11.109Z,765
2016-03-08T09:42:24.813Z,755
2016-03-08T09:42:38.500Z,750
2016-03-08T09:42:52.175Z,740
2016-03-08T09:43:05.737Z,735
2016-03-08T09:43:22.659Z,730
2016-03-08T09:43:36.425Z,730
2016-03-08T09:43:50.068Z,725
2016-03-08T09:44:03.771Z,725
2016-03-08T09:44:17.583Z,720
2016-03-08T09:44:31.349Z,710
2016-03-08T09:44:44.978Z,700
2016-03-08T09:44:58.837Z,700
2016-03-08T09:45:12.493Z,685
2016-03-08T09:45:26.290Z,680
2016-03-08T09:45:40.134Z,675
2016-03-08T09:45:53.824Z,670
2016-03-08T09:46:07.589Z,665
2016-03-08T09:46:21.355Z,665
2016-03-08T09:46:35.042Z,665
2016-03-08T09:46:48.872Z,665
2016-03-08T09:47:02.763Z,665
2016-03-08T09:47:16.482Z,665
2016-03-08T09:47:30.294Z,670
2016-03-08T09:47:44.220Z,670
2016-03-08T09:47:58.064Z,675
2016-03-08T09:48:11.720Z,675
2016-03-08T09:48:25.533Z,675
2016-03-08T09:48:39.126Z,670
2016-03-08T09:48:52.878Z,670
2016-03-08T09:49:06.644Z,665
2016-03-08T09:49:20.457Z,660
2016-03-08T09:49:34.597Z,660
2016-03-08T09:49:48.381Z,655
2016-03-08T09:50:02.210Z,650
2016-03-08T09:50:15.960Z,650
2016-03-08T09:50:28.928Z,645
2016-03-08T09:50:42.759Z,645
2016-03-08T09:50:56.322Z,645
2016-03-08T09:51:10.088Z,645
2016-03-08T09:51:23.853Z,650
2016-03-08T09:51:37.556Z,640
2016-03-08T09:51:51.371Z,645
2016-03-08T09:52:05.152Z,650
2016-03-08T09:52:19.027Z,655
2016-03-08T09:52:32.793Z,655
2016-03-08T09:52:46.561Z,660
2016-03-08T09:53:00.218Z,670
2016-03-08T09:53:14.093Z,675
2016-03-08T09:53:27.858Z,680
2016-03-08T09:53:41.561Z,695
2016-03-08T09:53:54.516Z,695
2016-03-08T09:54:08.110Z,705
2016-03-08T09:54:21.751Z,715
2016-03-08T09:54:35.751Z,725
2016-03-08T09:54:49.848Z,735
2016-03-08T09:55:03.394Z,745
2016-03-08T09:55:16.238Z,750
2016-03-08T09:55:29.816Z,755
2016-03-08T09:55:42.679Z,760
2016-03-08T09:55:56.226Z,765
2016-03-08T09:56:09.866Z,765
2016-03-08T09:56:23.413Z,760
2016-03-08T09:56:37.210Z,760
2016-03-08T09:56:50.728Z,760
2016-03-08T09:57:04.306Z,765
2016-03-08T09:57:17.884Z,760
2016-03-08T09:57:31.712Z,765
2016-03-08T09:57:45.402Z,775
2016-03-08T09:57:59.418Z,765
2016-03-08T09:58:40.059Z,765
2016-03-08T09:58:53.859Z,770
2016-03-08T09:59:06.702Z,770
2016-03-08T09:59:20.265Z,775
2016-03-08T09:59:34.234Z,785
2016-03-08T09:59:47.846Z,790
2016-03-08T10:00:01.424Z,800
2016-03-08T10:00:15.018Z,805
2016-03-08T10:00:28.018Z,815
2016-03-08T10:00:41.049Z,825
2016-03-08T10:00:57.754Z,840
2016-03-08T10:01:11.442Z,860
2016-03-08T10:01:25.082Z,870
2016-03-08T10:01:38.723Z,885
2016-03-08T10:01:51.710Z,880
2016-03-08T10:02:05.382Z,885
2016-03-08T10:02:19.163Z,885
2016-03-08T10:02:32.773Z,885
2016-03-08T10:02:46.494Z,885
2016-03-08T10:03:00.322Z,885
2016-03-08T10:03:14.103Z,885
2016-03-08T10:03:27.837Z,890
2016-03-08T10:03:41.603Z,890
2016-03-08T10:03:54.638Z,885
2016-03-08T10:04:08.451Z,885
2016-03-08T10:04:22.341Z,885
2016-03-08T10:04:36.169Z,895
2016-03-08T10:04:49.937Z,895
2016-03-08T10:05:03.812Z,905
2016-03-08T10:05:17.593Z,915
2016-03-08T10:05:31.359Z,930
2016-03-08T10:05:45.315Z,930
2016-03-08T10:05:59.456Z,935
2016-03-08T10:06:13.206Z,945
2016-03-08T10:06:27.971Z,950
2016-03-08T10:06:41.721Z,950
2016-03-08T10:06:55.866Z,955
2016-03-08T10:07:09.585Z,960
2016-03-08T10:07:23.569Z,965
2016-03-08T10:07:37.350Z,970
2016-03-08T10:07:51.243Z,975
2016-03-08T10:08:05.118Z,975
2016-03-08T10:08:21.930Z,965
2016-03-08T10:08:35.743Z,955
2016-03-08T10:08:49.340Z,945
2016-03-08T10:09:03.027Z,940
2016-03-08T10:09:16.871Z,930
2016-03-08T10:09:30.558Z,910
2016-03-08T10:09:44.515Z,905
2016-03-08T10:09:57.468Z,895
2016-03-08T10:10:11.171Z,885
2016-03-08T10:10:24.999Z,875
2016-03-08T10:10:38.827Z,865
2016-03-08T10:10:52.892Z,860
2016-03-08T10:11:06.673Z,855
2016-03-08T10:11:20.470Z,840
2016-03-08T10:11:34.235Z,835
2016-03-08T10:11:47.332Z,830
2016-03-08T10:12:01.035Z,825
2016-03-08T10:12:14.676Z,815
2016-03-08T10:12:27.754Z,810
2016-03-08T10:12:41.582Z,810
2016-03-08T10:12:55.351Z,805
2016-03-08T10:13:09.444Z,805
2016-03-08T10:13:23.273Z,810
2016-03-08T10:13:37.038Z,810
2016-03-08T10:13:50.775Z,825
2016-03-08T10:14:04.603Z,820
2016-03-08T10:14:18.384Z,830
2016-03-08T10:14:32.009Z,830
2016-03-08T10:14:45.793Z,835
2016-03-08T10:14:59.731Z,845
2016-03-08T10:15:13.434Z,845
2016-03-08T10:15:27.199Z,850
2016-03-08T10:15:40.903Z,850
2016-03-08T10:15:54.649Z,850
2016-03-08T10:16:08.492Z,835
2016-03-08T10:16:22.320Z,825
2016-03-08T10:16:35.961Z,810
2016-03-08T10:16:49.768Z,805
2016-03-08T10:17:02.799Z,790
2016-03-08T10:17:16.611Z,785
2016-03-08T10:17:30.330Z,775
2016-03-08T10:17:43.963Z,770
2016-03-08T10:17:57.775Z,780
2016-03-08T10:18:11.603Z,770
2016-03-08T10:18:25.431Z,780
2016-03-08T10:18:39.306Z,780
2016-03-08T10:18:53.003Z,785
2016-03-08T10:19:06.846Z,795
2016-03-08T10:19:20.674Z,795
2016-03-08T10:19:34.503Z,805
2016-03-08T10:19:48.261Z,820
2016-03-08T10:20:02.011Z,840
2016-03-08T10:20:16.042Z,860
2016-03-08T10:21:01.288Z,885
2016-03-08T10:21:15.179Z,880
2016-03-08T10:21:29.054Z,880
2016-03-08T10:21:42.945Z,875
2016-03-08T10:21:59.554Z,865
2016-03-08T10:22:13.445Z,850
2016-03-08T10:22:27.273Z,835
2016-03-08T10:22:41.288Z,830
2016-03-08T10:22:55.116Z,825
2016-03-08T10:23:08.959Z,825
2016-03-08T10:23:22.631Z,835
2016-03-08T10:23:36.772Z,835
2016-03-08T10:23:50.614Z,850
2016-03-08T10:24:04.489Z,865
2016-03-08T10:24:18.692Z,885
2016-03-08T10:24:32.504Z,895
2016-03-08T10:24:46.285Z,900
2016-03-08T10:25:00.098Z,915
2016-03-08T10:25:13.989Z,920
2016-03-08T10:25:27.817Z,925
2016-03-08T10:25:42.020Z,920
2016-03-08T10:25:55.786Z,925
2016-03-08T10:26:09.677Z,940
2016-03-08T10:26:23.630Z,955
2016-03-08T10:26:37.458Z,980
2016-03-08T10:26:51.194Z,1005
2016-03-08T10:27:05.350Z,1005
2016-03-08T10:27:19.303Z,1015
2016-03-08T10:27:33.319Z,1025
2016-03-08T10:27:47.071Z,1045
2016-03-08T10:28:01.039Z,1065
2016-03-08T10:28:15.008Z,1080
2016-03-08T10:28:28.930Z,1100
2016-03-08T10:28:42.838Z,1110
2016-03-08T10:28:56.651Z,1115
2016-03-08T10:29:10.526Z,1135
2016-03-08T10:29:24.604Z,1145
2016-03-08T10:29:38.745Z,1145
2016-03-08T10:29:53.121Z,1135
2016-03-08T10:30:07.042Z,1095
2016-03-08T10:30:20.902Z,1070
2016-03-08T10:30:34.777Z,1035
2016-03-08T10:30:48.544Z,1010
2016-03-08T10:31:02.435Z,995
2016-03-08T10:31:16.404Z,975
2016-03-08T10:31:30.216Z,965
2016-03-08T10:31:44.171Z,955
2016-03-08T10:31:58.000Z,945
2016-03-08T10:32:12.171Z,945
2016-03-08T10:32:25.265Z,930
2016-03-08T10:32:39.015Z,915
2016-03-08T10:32:52.845Z,900
2016-03-08T10:33:06.611Z,890
2016-03-08T10:33:34.767Z,885
2016-03-08T10:33:48.535Z,895
2016-03-08T10:34:02.300Z,905
2016-03-08T10:34:16.004Z,915
2016-03-08T10:34:29.816Z,920
2016-03-08T10:34:43.647Z,915
2016-03-08T10:34:57.725Z,915
2016-03-08T10:35:11.257Z,910
2016-03-08T10:35:25.147Z,910
2016-03-08T10:35:38.944Z,920
2016-03-08T10:35:52.665Z,925
2016-03-08T10:36:06.524Z,935
2016-03-08T10:36:20.696Z,955
2016-03-08T10:36:34.555Z,960
2016-03-08T10:36:48.465Z,970
2016-03-08T10:37:02.527Z,980
2016-03-08T10:37:16.418Z,990
2016-03-08T10:37:30.246Z,990
2016-03-08T10:37:44.076Z,990
2016-03-08T10:37:58.279Z,985
2016-03-08T10:38:12.045Z,975
2016-03-08T10:38:25.935Z,960
2016-03-08T10:38:39.857Z,945
2016-03-08T10:38:53.562Z,930
2016-03-08T10:39:07.391Z,925
2016-03-08T10:39:21.344Z,920
2016-03-08T10:39:35.125Z,920
2016-03-08T10:39:49.002Z,925
2016-03-08T10:40:02.814Z,925
2016-03-08T10:40:16.721Z,925
2016-03-08T10:40:30.611Z,935
2016-03-08T10:40:44.442Z,940
2016-03-08T10:40:58.146Z,945
2016-03-08T10:41:11.958Z,950
2016-03-08T10:41:25.661Z,940
2016-03-08T10:41:39.442Z,930
2016-03-08T10:41:53.258Z,920
2016-03-08T10:42:07.149Z,905
2016-03-08T10:42:20.977Z,900
2016-03-08T10:42:34.742Z,895
2016-03-08T10:42:48.447Z,885
2016-03-08T10:43:02.322Z,875
2016-03-08T10:43:16.166Z,870
2016-03-08T10:43:30.291Z,870
2016-03-08T10:43:44.372Z,860
2016-03-08T10:43:58.138Z,870
2016-03-08T10:44:12.029Z,860
2016-03-08T10:44:25.919Z,860
2016-03-08T10:44:39.685Z,870
2016-03-08T10:45:07.532Z,885
2016-03-08T10:45:21.282Z,880
2016-03-08T10:45:35.000Z,885
2016-03-08T10:45:48.627Z,895
2016-03-08T10:46:02.237Z,900
2016-03-08T10:46:15.893Z,910
2016-03-08T10:46:29.752Z,920
2016-03-08T10:46:43.584Z,925
2016-03-08T10:46:57.288Z,945
2016-03-08T10:47:11.006Z,965
2016-03-08T10:47:25.038Z,985
2016-03-08T10:47:38.897Z,1015
2016-03-08T10:47:52.758Z,1045
2016-03-08T10:48:06.868Z,1070
2016-03-08T10:48:20.790Z,1100
2016-03-08T10:48:34.993Z,1125
2016-03-08T10:48:49.167Z,1145
2016-03-08T10:49:02.917Z,1160
2016-03-08T10:49:17.026Z,1170
2016-03-08T10:49:30.854Z,1200
2016-03-08T10:49:44.764Z,1210
2016-03-08T10:49:58.514Z,1230
2016-03-08T10:50:12.592Z,1275
2016-03-08T10:50:26.467Z,1395
2016-03-08T10:50:40.467Z,1340
2016-03-08T10:50:54.266Z,1350
2016-03-08T10:51:07.298Z,1390
2016-03-08T10:51:21.110Z,1415
2016-03-08T10:51:34.657Z,1395